This is the latest recevied weather packets stored in our database for station/object DM3FAM-13. If no packets are shown the sender has not sent any weather packets the latest 10 day(s).
| Time | Temp. | Humidity | Pressure | Rain* | Wind** | Luminosity | Snow |
|---|---|---|---|---|---|---|---|
| 1777698031 | 7.22° C | 84% | 1022.9 hPa | 0 mm | - | 22 W/m² | - |
| 1777697430 | 6.67° C | 85% | 1022.8 hPa | 0 mm | - | 18 W/m² | - |
| 1777696830 | 6.11° C | 84% | 1022.8 hPa | 0 mm | - | 15 W/m² | - |
| 1777696230 | 6.11° C | 85% | 1022.8 hPa | 0 mm | - | 9 W/m² | - |
| 1777695630 | 6.11° C | 84% | 1022.9 hPa | 0 mm | - | 5 W/m² | - |
| 1777695030 | 5.56° C | 84% | 1022.9 hPa | 0 mm | - | 2 W/m² | - |
| 1777694431 | 6.11° C | 84% | 1022.9 hPa | 0 mm | - | 1 W/m² | - |
| 1777693831 | 6.11° C | 84% | 1022.9 hPa | 0 mm | - | 0 W/m² | - |
| 1777693231 | 5.56° C | 84% | 1022.8 hPa | 0 mm | - | 0 W/m² | - |
| 1777692631 | 6.11° C | 82% | 1022.9 hPa | 0 mm | - | 0 W/m² | - |
| 1777692031 | 6.11° C | 82% | 1022.8 hPa | 0 mm | - | 0 W/m² | - |
| 1777691430 | 6.11° C | 82% | 1022.8 hPa | 0 mm | - | 0 W/m² | - |
| 1777690830 | 6.11° C | 83% | 1022.9 hPa | 0 mm | - | 0 W/m² | - |
| 1777690230 | 6.11° C | 82% | 1022.9 hPa | 0 mm | - | 0 W/m² | - |
| 1777689630 | 6.11° C | 82% | 1023 hPa | 0 mm | - | 0 W/m² | - |
| 1777688430 | 7.22° C | 79% | 1022.9 hPa | 0 mm | - | 0 W/m² | - |
| 1777674030 | 8.89° C | 70% | 1023.8 hPa | 0 mm | - | 0 W/m² | - |
| 1777673430 | 9.44° C | 70% | 1023.7 hPa | 0 mm | - | 0 W/m² | - |
| 1777671631 | 8.33° C | 72% | 1023.7 hPa | 0 mm | - | 0 W/m² | - |
| 1777670430 | 8.33° C | 73% | 1023.6 hPa | 0 mm | - | 0 W/m² | - |
| 1777669830 | 8.33° C | 73% | 1023.6 hPa | 0 mm | - | 0 W/m² | - |
| 1777669231 | 8.89° C | 72% | 1023.7 hPa | 0 mm | - | 0 W/m² | - |
| 1777667431 | 8.89° C | 75% | 1023.4 hPa | 0 mm | - | 0 W/m² | - |
| 1777666831 | 9.44° C | 73% | 1023.5 hPa | 0 mm | - | 0 W/m² | - |
| 1777666230 | 10° C | 71% | 1023.7 hPa | 0 mm | - | 0 W/m² | - |
* Rain latest hour (hover to see other rain measurements)
** Current wind speed in m/s (hover to see current wind gust speed)